Main page
METAR-TAF:

METAR-TAF

Airports :

RAF Spadeadam

Spadeadam, England

latitude: 55-03N, longitude: 002-33W, elevation: 325 m

Current weather observation

The report was made 31 minutes ago, at 10:50 UTC
Wind 16 kt from the South/Southwest
Temperature 12°C
Humidity 67%
Pressure 991 hPa
Visibility 10 km or more

METAR: EGOM 091050Z AUTO 20016KT 9999 FEW037/// SCT045/// 12/06 Q0991

Time: 12:21 (11:21 UTC)


TAF: missing

Weather observations and forecasts of more than 4000 airports (METAR and TAF reports).

The available stations are represented by yellow and red dots on the map.

Hover mouse over dot to see the name of the station.

Then click to see weather observations and forecasts.

To change the map : click on the green buttons with a black cross to zoom in, on the green button with a dash to zoom out, or on the green arrows for adjacent maps.


METAR-TAF: